Главная страница
METAR-TAF:

METAR-TAF

Аэропорты :

Аэропорт Принцессы Юлианы

Синт-Мартен, Нидерландские Антильские острова

широта: 18-03N, долгота: 063-07W, высота над уровнем моря: 4 м

Текущие метеонаблюдения

Эта сводка был подготовлена 38 минут назад, в 20:00 UTC
Ветер 8 Узел от восточный, изменяющийся между северо-восточный и восточно-юго-восточный
Температура 29°C
Влажность 66%
Давление 1018 hPa
Видимость 10 км и более
небольшая облачность на высоте 2100 фута

METAR: TNCM 242000Z 09008KT 040V110 9999 FEW021 29/22 Q1018 NOSIG RMK A3006/ HZ ALQDS

Время: 16:38 (20:38 UTC)

Прогноз

Эта сводка был подготовлена 2 часа и 58 минут назад, в 17:40 UTC
Прогноз действительный с 24-го 18 UTC до 25-го 18 UTC
Ветер 12 Узел от восточный
Видимость: 10 км
Отдельные облака на высоте 2000 фута

TAF: TNCM 241740Z 2418/2518 09012KT P6SM SCT020

Метеонаблюдения и прогнозы для более 4000 аэропортов (сводки METAR и TAF).

Имеющиеся станции представлены на карте желтыми и красными точками.

Чтобы увидеть название станции, наведите на нее мышь.

Затем щелкните, чтобы увидеть метеонаблюдения и метеопрогнозы.

Управление картой: чтобы увеличить масштаб, щелкните зеленые кнопки с черным крестиком; чтобы уменьшить масштаб, щелкните зеленую кнопку с тире; для просмотра соседних карт щелкайте зеленые стрелки.


METAR-TAF: